createdAt,value
2022-08-12T00:02:21.371Z,82.51
2022-08-12T00:05:09.107Z,82.86
2022-08-12T00:07:59.801Z,82.89
2022-08-12T00:10:47.423Z,83.21
2022-08-12T00:13:34.105Z,83.20
2022-08-12T00:16:21.251Z,83.36
2022-08-12T00:19:07.939Z,83.22
2022-08-12T00:21:56.286Z,82.91
2022-08-12T00:24:43.016Z,83.34
2022-08-12T00:27:43.842Z,83.23
2022-08-12T00:30:32.093Z,84.00
2022-08-12T00:33:18.731Z,83.74
2022-08-12T00:36:35.214Z,83.58
2022-08-12T00:39:22.903Z,83.46
2022-08-12T00:42:11.807Z,83.92
2022-08-12T00:44:48.150Z,84.33
2022-08-12T00:47:24.715Z,84.37
2022-08-12T00:49:57.101Z,84.96
2022-08-12T00:52:25.994Z,85.19
2022-08-12T00:55:00.263Z,85.21
2022-08-12T00:57:37.482Z,85.54
2022-08-12T01:00:10.053Z,85.87
2022-08-12T01:07:43.668Z,87.46
2022-08-12T01:10:32.533Z,86.40
2022-08-12T01:13:18.245Z,86.37
2022-08-12T01:16:40.055Z,86.80
2022-08-12T01:19:08.755Z,85.50
2022-08-12T01:22:04.226Z,85.79
2022-08-12T01:24:38.053Z,85.87
2022-08-12T01:27:09.931Z,85.72
2022-08-12T01:29:44.074Z,85.78
2022-08-12T01:32:14.678Z,85.61
2022-08-12T01:34:54.164Z,85.75
2022-08-12T01:42:05.236Z,86.92
2022-08-12T01:44:35.327Z,84.86
2022-08-12T01:47:31.240Z,87.88
2022-08-12T01:50:21.476Z,85.35
2022-08-12T01:52:55.587Z,84.92
2022-08-12T01:55:27.117Z,84.91
2022-08-12T01:58:21.080Z,85.03
2022-08-12T02:01:16.017Z,84.26
2022-08-12T02:04:13.416Z,83.59
2022-08-12T02:07:18.739Z,82.97
2022-08-12T02:10:49.054Z,83.41
2022-08-12T02:13:48.425Z,82.90
2022-08-12T02:16:39.973Z,82.89
2022-08-12T02:19:22.308Z,82.93
2022-08-12T02:22:04.723Z,82.88
2022-08-12T02:24:37.539Z,83.68
2022-08-12T02:27:10.837Z,85.62
2022-08-12T02:29:41.031Z,84.70
2022-08-12T02:32:09.523Z,84.20
2022-08-12T02:34:38.123Z,82.68
2022-08-12T02:37:09.346Z,80.74
2022-08-12T02:39:40.964Z,80.82
2022-08-12T02:42:12.150Z,81.36
2022-08-12T02:44:43.749Z,81.65
2022-08-12T02:47:58.893Z,81.62
2022-08-12T02:50:04.145Z,81.67
2022-08-12T02:52:35.038Z,81.65
2022-08-12T02:55:28.185Z,81.63
2022-08-12T02:58:12.565Z,81.92
2022-08-12T03:00:44.450Z,81.93
2022-08-12T03:03:14.880Z,81.64
2022-08-12T03:05:54.587Z,81.62
2022-08-12T03:08:32.511Z,81.62
2022-08-12T03:11:27.853Z,81.75
2022-08-12T03:14:02.185Z,82.67
2022-08-12T03:16:33.198Z,84.17
2022-08-12T03:19:01.570Z,83.46
2022-08-12T03:21:53.138Z,83.83
2022-08-12T03:24:26.547Z,82.27
2022-08-12T03:26:55.398Z,80.78
2022-08-12T03:29:33.448Z,80.25
2022-08-12T03:32:35.788Z,80.43
2022-08-12T03:35:07.568Z,79.83
2022-08-12T03:37:37.550Z,80.96
2022-08-12T03:40:08.989Z,80.80
2022-08-12T03:43:05.425Z,80.43
2022-08-12T03:45:53.090Z,80.26
2022-08-12T03:48:39.990Z,79.94
2022-08-12T03:51:27.785Z,81.67
2022-08-12T03:54:15.352Z,81.95
2022-08-12T03:57:01.949Z,80.90
2022-08-12T03:59:48.516Z,80.22
2022-08-12T04:02:17.729Z,79.75
2022-08-12T04:04:49.288Z,79.59
2022-08-12T04:07:17.948Z,79.74
2022-08-12T04:09:47.138Z,80.02
2022-08-12T04:12:34.131Z,79.59
2022-08-12T04:15:02.960Z,79.70
2022-08-12T04:17:31.651Z,79.60
2022-08-12T04:20:00.014Z,80.03
2022-08-12T04:22:37.948Z,80.57
2022-08-12T04:25:06.255Z,79.83
2022-08-12T04:27:35.065Z,79.64
2022-08-12T04:30:31.074Z,80.01
2022-08-12T04:32:54.024Z,80.51
2022-08-12T04:35:22.355Z,80.69
2022-08-12T04:38:00.371Z,79.95
2022-08-12T04:40:32.559Z,80.12
2022-08-12T04:43:03.880Z,80.46
2022-08-12T04:45:33.264Z,80.85
2022-08-12T04:48:02.642Z,80.99
2022-08-12T04:50:36.216Z,81.39
2022-08-12T04:53:07.992Z,81.66
2022-08-12T04:55:42.598Z,81.89
2022-08-12T04:58:12.334Z,81.25
2022-08-12T05:00:42.940Z,80.96
2022-08-12T05:03:11.106Z,80.84
2022-08-12T05:05:40.813Z,81.06
2022-08-12T05:08:15.959Z,81.90
2022-08-12T05:10:46.586Z,82.20
2022-08-12T05:13:21.830Z,81.72
2022-08-12T05:16:04.302Z,80.14
2022-08-12T05:18:39.516Z,79.95
2022-08-12T05:21:09.185Z,80.07
2022-08-12T05:23:38.681Z,80.29
2022-08-12T05:26:07.129Z,80.61
2022-08-12T05:28:35.563Z,80.79
2022-08-12T05:31:04.539Z,80.88
2022-08-12T05:33:40.910Z,80.83
2022-08-12T05:36:15.285Z,80.95
2022-08-12T05:38:57.179Z,81.09
2022-08-12T05:41:35.433Z,81.04
2022-08-12T05:44:07.930Z,81.01
2022-08-12T05:46:39.741Z,81.31
2022-08-12T05:49:09.359Z,81.51
2022-08-12T05:51:40.705Z,81.34
2022-08-12T05:54:11.715Z,81.08
2022-08-12T05:56:43.784Z,81.26
2022-08-12T05:59:13.053Z,81.19
2022-08-12T06:02:10.727Z,81.38
2022-08-12T06:04:31.788Z,81.42
2022-08-12T06:07:01.963Z,81.46
2022-08-12T06:09:31.092Z,81.60
2022-08-12T06:12:06.188Z,81.55
2022-08-12T06:14:38.758Z,81.52
2022-08-12T06:17:09.446Z,81.62
2022-08-12T06:20:26.068Z,81.55
2022-08-12T06:22:27.002Z,81.52
2022-08-12T06:24:55.182Z,81.49
2022-08-12T06:27:23.405Z,81.46
2022-08-12T06:30:09.416Z,81.95
2022-08-12T06:32:52.012Z,81.95
2022-08-12T06:35:47.976Z,81.14
2022-08-12T06:38:16.777Z,80.73
2022-08-12T06:41:05.367Z,80.79
2022-08-12T06:44:05.776Z,80.43
2022-08-12T06:46:24.239Z,80.57
2022-08-12T06:48:59.171Z,80.24
2022-08-12T06:51:30.351Z,79.99
2022-08-12T06:53:59.839Z,79.31
2022-08-12T06:56:59.500Z,79.02
2022-08-12T06:59:16.550Z,79.05
2022-08-12T07:01:50.725Z,78.87
2022-08-12T07:04:37.809Z,78.15
2022-08-12T07:07:10.368Z,77.98
2022-08-12T07:10:00.107Z,77.58
2022-08-12T07:12:32.362Z,76.35
2022-08-12T07:15:02.201Z,77.23
2022-08-12T07:17:36.565Z,76.75
2022-08-12T07:20:29.735Z,77.25
2022-08-12T07:23:00.831Z,76.98
2022-08-12T07:25:37.567Z,76.63
2022-08-12T07:28:17.067Z,77.06
2022-08-12T07:30:49.504Z,76.59
2022-08-12T07:33:22.427Z,76.21
2022-08-12T07:35:54.158Z,75.28
2022-08-12T07:38:38.350Z,75.39
2022-08-12T07:41:15.625Z,75.09
2022-08-12T07:43:48.661Z,74.88
2022-08-12T07:46:22.670Z,75.08
2022-08-12T07:48:51.817Z,74.55
2022-08-12T07:51:25.513Z,74.18
2022-08-12T07:54:00.391Z,73.84
2022-08-12T07:56:31.701Z,73.96
2022-08-12T07:59:01.333Z,73.79
2022-08-12T08:01:30.570Z,73.47
2022-08-12T08:04:19.362Z,72.80
2022-08-12T08:06:49.492Z,72.32
2022-08-12T08:09:21.359Z,72.22
2022-08-12T08:12:08.472Z,72.23
2022-08-12T08:14:37.124Z,71.55
2022-08-12T08:17:06.687Z,71.46
2022-08-12T08:20:03.251Z,70.61
2022-08-12T08:22:32.058Z,70.56
2022-08-12T08:25:36.668Z,70.44
2022-08-12T08:28:01.505Z,70.08
2022-08-12T08:30:31.319Z,69.74
2022-08-12T08:32:59.802Z,69.63
2022-08-12T08:35:32.132Z,69.08
2022-08-12T08:38:27.358Z,69.31
2022-08-12T08:42:13.980Z,68.82
2022-08-12T08:44:11.240Z,68.50
2022-08-12T08:46:40.805Z,68.07
2022-08-12T08:49:08.851Z,67.70
2022-08-12T08:51:39.075Z,67.59
2022-08-12T08:54:08.962Z,67.13
2022-08-12T08:56:44.218Z,66.77
2022-08-12T08:59:13.838Z,66.42
2022-08-12T09:01:44.339Z,65.79
2022-08-12T09:05:09.475Z,66.07
2022-08-12T09:10:02.419Z,65.02
2022-08-12T09:12:55.157Z,64.08
2022-08-12T09:15:35.410Z,63.91
2022-08-12T09:20:54.023Z,64.10
2022-08-12T09:23:57.083Z,62.78
2022-08-12T09:26:10.005Z,62.35
2022-08-12T09:28:41.238Z,62.47
2022-08-12T09:32:03.216Z,61.82
2022-08-12T09:34:25.894Z,61.90
2022-08-12T09:36:58.083Z,60.73
2022-08-12T09:40:06.210Z,60.99
2022-08-12T09:42:54.270Z,60.85
2022-08-12T09:46:20.861Z,60.00
2022-08-12T09:48:22.247Z,58.79
2022-08-12T09:50:55.281Z,59.30
2022-08-12T09:53:36.540Z,59.52
2022-08-12T09:56:57.017Z,58.80
2022-08-12T09:59:01.791Z,59.51
2022-08-12T10:01:35.423Z,59.48
2022-08-12T10:04:20.156Z,58.94
2022-08-12T10:06:54.087Z,59.19
2022-08-12T10:09:28.641Z,58.91
2022-08-12T10:12:31.631Z,57.44
2022-08-12T10:15:02.571Z,56.99
2022-08-12T10:17:30.887Z,57.20
2022-08-12T10:19:59.839Z,56.69
2022-08-12T10:22:47.116Z,56.42
2022-08-12T10:26:35.516Z,56.38
2022-08-12T10:28:42.617Z,55.61
2022-08-12T10:31:46.859Z,54.19
2022-08-12T10:34:26.150Z,54.85
2022-08-12T10:37:10.469Z,55.65
2022-08-12T10:40:06.938Z,54.76
2022-08-12T10:43:00.570Z,54.69
2022-08-12T10:45:32.012Z,53.95
2022-08-12T10:48:20.425Z,53.58
2022-08-12T10:51:01.902Z,53.34
2022-08-12T10:53:43.707Z,52.74
2022-08-12T10:56:18.630Z,51.92
2022-08-12T10:58:47.087Z,52.38
2022-08-12T11:01:50.567Z,51.79
2022-08-12T11:04:24.118Z,52.17
2022-08-12T11:07:05.537Z,51.57
2022-08-12T11:10:00.728Z,51.21
2022-08-12T11:12:55.067Z,51.11
2022-08-12T11:15:32.878Z,51.22
2022-08-12T11:18:11.863Z,50.06
2022-08-12T11:20:47.686Z,49.31
2022-08-12T11:23:25.633Z,49.78
2022-08-12T11:26:07.256Z,50.11
2022-08-12T11:28:36.893Z,50.13
2022-08-12T11:31:11.973Z,50.30
2022-08-12T11:34:05.232Z,49.98
2022-08-12T11:36:30.651Z,49.03
2022-08-12T11:39:04.284Z,49.02
2022-08-12T11:41:34.777Z,48.04
2022-08-12T11:44:35.301Z,48.56
2022-08-12T11:46:54.745Z,47.98
2022-08-12T11:49:31.436Z,47.93
2022-08-12T11:52:17.305Z,47.85
2022-08-12T11:54:54.410Z,48.17
2022-08-12T11:58:07.195Z,48.23
2022-08-12T12:02:59.549Z,47.33
2022-08-12T12:05:28.482Z,47.30
2022-08-12T12:08:37.248Z,46.21
2022-08-12T12:10:55.369Z,45.73
2022-08-12T12:14:06.423Z,44.91
2022-08-12T12:16:12.647Z,45.71
2022-08-12T12:18:40.913Z,45.33
2022-08-12T12:21:08.958Z,45.70
2022-08-12T12:23:38.561Z,45.54
2022-08-12T12:26:35.465Z,45.29
2022-08-12T12:29:05.275Z,45.62
2022-08-12T12:32:09.863Z,45.65
2022-08-12T12:34:30.625Z,45.59
2022-08-12T12:36:58.820Z,45.53
2022-08-12T12:39:29.091Z,45.04
2022-08-12T12:42:45.312Z,44.91
2022-08-12T12:44:50.937Z,45.34
2022-08-12T12:47:29.943Z,44.80
2022-08-12T12:49:58.263Z,44.29
2022-08-12T12:52:27.127Z,44.30
2022-08-12T12:54:58.777Z,43.20
2022-08-12T12:57:59.261Z,43.07
2022-08-12T13:00:18.147Z,42.52
2022-08-12T13:02:53.643Z,42.50
2022-08-12T13:05:29.321Z,42.55
2022-08-12T13:08:01.846Z,42.24
2022-08-12T13:10:36.675Z,42.00
2022-08-12T13:14:07.926Z,40.14
2022-08-12T13:15:59.094Z,41.09
2022-08-12T13:18:36.455Z,40.93
2022-08-12T13:21:06.728Z,40.49
2022-08-12T13:23:48.063Z,39.74
2022-08-12T13:26:18.495Z,39.55
2022-08-12T13:28:53.387Z,39.61
2022-08-12T13:31:24.997Z,38.95
2022-08-12T13:34:32.769Z,37.48
2022-08-12T13:36:43.550Z,38.74
2022-08-12T13:39:12.906Z,37.70
2022-08-12T13:41:44.743Z,37.11
2022-08-12T13:44:13.181Z,36.89
2022-08-12T13:46:42.319Z,37.37
2022-08-12T13:49:20.421Z,37.14
2022-08-12T13:52:04.580Z,37.24
2022-08-12T13:54:33.937Z,37.38
2022-08-12T13:57:01.860Z,36.50
2022-08-12T13:59:30.912Z,36.64
2022-08-12T14:02:17.651Z,36.09
2022-08-12T14:04:45.646Z,35.88
2022-08-12T14:07:25.876Z,36.02
2022-08-12T14:10:16.337Z,35.80
2022-08-12T14:12:54.115Z,36.07
2022-08-12T14:15:26.686Z,34.69
2022-08-12T14:18:29.241Z,34.76
2022-08-12T14:21:06.384Z,34.91
2022-08-12T14:24:01.943Z,34.86
2022-08-12T14:26:29.155Z,34.65
2022-08-12T14:29:01.736Z,34.99
2022-08-12T14:31:31.998Z,34.67
2022-08-12T14:34:00.422Z,35.12
2022-08-12T14:36:33.216Z,34.94
2022-08-12T14:39:04.974Z,34.71
2022-08-12T14:41:37.164Z,33.91
2022-08-12T14:45:00.108Z,34.15
2022-08-12T14:47:07.652Z,32.78
2022-08-12T14:50:33.969Z,32.81
2022-08-12T14:53:41.261Z,32.45
2022-08-12T14:58:03.036Z,32.27
2022-08-12T15:00:55.486Z,32.08
2022-08-12T15:03:57.030Z,32.14
2022-08-12T15:06:44.061Z,32.39
2022-08-12T15:09:17.620Z,31.75
2022-08-12T15:12:03.693Z,31.59
2022-08-12T15:14:40.151Z,32.24
2022-08-12T15:17:37.639Z,32.43
2022-08-12T15:20:31.033Z,31.78
2022-08-12T15:22:58.220Z,31.98
2022-08-12T15:25:30.530Z,31.90
2022-08-12T15:28:20.764Z,32.27
2022-08-12T15:30:54.726Z,32.79
2022-08-12T15:33:44.766Z,32.69
2022-08-12T15:36:19.570Z,32.46
2022-08-12T15:39:04.171Z,32.06
2022-08-12T15:41:49.323Z,31.80
2022-08-12T15:44:37.033Z,32.26
2022-08-12T15:47:07.378Z,32.20
2022-08-12T15:49:54.417Z,32.21
2022-08-12T15:52:33.299Z,32.06
2022-08-12T15:55:06.631Z,32.25
2022-08-12T15:57:53.381Z,32.46
2022-08-12T16:00:28.927Z,33.04
2022-08-12T16:03:08.382Z,32.91
2022-08-12T16:06:16.767Z,32.75
2022-08-12T16:08:42.998Z,33.04
2022-08-12T16:11:14.790Z,33.37
2022-08-12T16:13:46.924Z,33.34
2022-08-12T16:16:23.654Z,33.51
2022-08-12T16:19:00.736Z,33.62
2022-08-12T16:21:52.947Z,33.77
2022-08-12T16:24:20.835Z,34.13
2022-08-12T16:26:51.006Z,34.42
2022-08-12T16:29:38.701Z,34.07
2022-08-12T16:33:59.665Z,34.29
2022-08-12T16:36:28.467Z,34.54
2022-08-12T16:38:57.243Z,35.03
2022-08-12T16:41:28.272Z,35.04
2022-08-12T16:44:09.045Z,35.37
2022-08-12T16:46:38.189Z,35.55
2022-08-12T16:49:12.976Z,35.81
2022-08-12T16:51:46.985Z,36.03
2022-08-12T16:54:19.077Z,35.88
2022-08-12T16:56:55.352Z,36.41
2022-08-12T16:59:52.939Z,36.50
2022-08-12T17:02:34.031Z,36.91
2022-08-12T17:05:14.893Z,36.80
2022-08-12T17:07:47.246Z,36.98
2022-08-12T17:10:36.072Z,36.97
2022-08-12T17:13:10.092Z,36.93
2022-08-12T17:16:05.628Z,37.14
2022-08-12T17:18:43.240Z,37.20
2022-08-12T17:21:41.809Z,37.63
2022-08-12T17:24:22.312Z,37.57
2022-08-12T17:27:01.194Z,37.45
2022-08-12T17:30:02.530Z,37.78
2022-08-12T17:32:33.762Z,38.18
2022-08-12T17:35:22.011Z,38.06
2022-08-12T17:38:11.801Z,38.54
2022-08-12T17:40:54.566Z,39.52
2022-08-12T17:43:51.805Z,40.35
2022-08-12T17:46:12.962Z,40.99
2022-08-12T17:48:55.444Z,41.24
2022-08-12T17:51:26.381Z,41.98
2022-08-12T17:54:11.031Z,42.53
2022-08-12T17:56:43.303Z,43.64
2022-08-12T17:59:13.098Z,43.46
2022-08-12T18:01:45.197Z,44.24
2022-08-12T18:04:22.442Z,44.23
2022-08-12T18:07:08.431Z,45.14
2022-08-12T18:09:38.036Z,45.19
2022-08-12T18:12:26.493Z,46.89
2022-08-12T18:15:01.139Z,46.95
2022-08-12T18:17:30.154Z,47.54
2022-08-12T18:20:06.134Z,47.13
2022-08-12T18:22:38.565Z,46.51
2022-08-12T18:26:15.906Z,47.06
2022-08-12T18:28:16.178Z,48.00
2022-08-12T18:30:52.173Z,48.38
2022-08-12T18:33:25.526Z,49.06
2022-08-12T18:35:56.858Z,50.38
2022-08-12T18:38:27.113Z,49.81
2022-08-12T18:41:21.452Z,49.57
2022-08-12T18:43:59.852Z,49.21
2022-08-12T18:46:53.984Z,49.33
2022-08-12T18:49:33.326Z,49.82
2022-08-12T18:52:08.008Z,51.64
2022-08-12T18:54:49.405Z,53.23
2022-08-12T18:58:07.467Z,53.51
2022-08-12T19:00:21.254Z,54.54
2022-08-12T19:02:53.484Z,54.16
2022-08-12T19:05:52.762Z,54.91
2022-08-12T19:08:14.594Z,54.16
2022-08-12T19:10:49.938Z,52.91
2022-08-12T19:13:40.000Z,52.72
2022-08-12T19:16:11.239Z,53.76
2022-08-12T19:18:45.009Z,55.19
2022-08-12T19:21:16.335Z,55.06
2022-08-12T19:24:05.316Z,55.95
2022-08-12T19:26:35.422Z,56.22
2022-08-12T19:29:08.180Z,55.65
2022-08-12T19:31:58.372Z,55.58
2022-08-12T19:38:03.124Z,56.39
2022-08-12T19:40:20.296Z,55.85
2022-08-12T19:43:20.023Z,55.54
2022-08-12T19:45:51.612Z,56.08
2022-08-12T19:48:22.053Z,57.28
2022-08-12T19:50:53.617Z,58.18
2022-08-12T19:53:24.431Z,57.95
2022-08-12T19:55:54.155Z,58.67
2022-08-12T19:58:24.302Z,58.62
2022-08-12T20:00:55.052Z,59.63
2022-08-12T20:03:40.649Z,57.97
2022-08-12T20:06:15.617Z,58.85
2022-08-12T20:08:48.905Z,59.01
2022-08-12T20:12:13.088Z,58.69
2022-08-12T20:14:18.488Z,58.97
2022-08-12T20:17:02.111Z,60.15
2022-08-12T20:20:05.499Z,59.63
2022-08-12T20:22:31.488Z,60.38
2022-08-12T20:25:10.780Z,61.10
2022-08-12T20:28:04.277Z,61.18
2022-08-12T20:30:37.633Z,61.02
2022-08-12T20:33:23.315Z,61.68
2022-08-12T20:36:13.484Z,61.74
2022-08-12T20:38:51.834Z,61.62
2022-08-12T20:41:24.044Z,62.78
2022-08-12T20:43:57.550Z,62.26
2022-08-12T20:46:31.670Z,63.15
2022-08-12T20:49:01.463Z,62.92
2022-08-12T20:51:55.625Z,62.86
2022-08-12T20:54:32.796Z,62.89
2022-08-12T20:57:08.806Z,64.07
2022-08-12T20:59:41.881Z,63.59
2022-08-12T21:02:18.712Z,64.71
2022-08-12T21:05:19.883Z,64.67
2022-08-12T21:07:51.779Z,64.76
2022-08-12T21:10:20.974Z,64.54
2022-08-12T21:12:50.943Z,64.87
2022-08-12T21:15:24.130Z,64.24
2022-08-12T21:18:09.782Z,64.87
2022-08-12T21:20:52.885Z,65.37
2022-08-12T21:23:22.529Z,64.51
2022-08-12T21:25:56.286Z,64.67
2022-08-12T21:28:27.624Z,65.04
2022-08-12T21:32:34.794Z,64.66
2022-08-12T21:34:06.602Z,64.51
2022-08-12T21:36:48.290Z,64.88
2022-08-12T21:39:21.236Z,65.38
2022-08-12T21:41:52.309Z,65.94
2022-08-12T21:45:45.778Z,66.24
2022-08-12T21:47:22.433Z,67.03
2022-08-12T21:50:03.784Z,67.13
2022-08-12T21:52:41.105Z,67.34
2022-08-12T21:55:18.984Z,68.03
2022-08-12T21:57:53.360Z,68.00
2022-08-12T22:00:33.522Z,68.29
2022-08-12T22:04:03.498Z,67.85
2022-08-12T22:06:30.741Z,68.11
2022-08-12T22:09:16.331Z,67.51
2022-08-12T22:11:59.229Z,67.88
2022-08-12T22:14:29.154Z,68.85
2022-08-12T22:17:00.379Z,68.65
2022-08-12T22:19:28.904Z,68.34
2022-08-12T22:22:04.078Z,69.74
2022-08-12T22:24:34.372Z,69.57
2022-08-12T22:27:17.879Z,69.38
2022-08-12T22:30:16.565Z,68.96
2022-08-12T22:32:49.787Z,68.86
2022-08-12T22:35:58.361Z,69.43
2022-08-12T22:38:26.638Z,69.65
2022-08-12T22:41:01.863Z,69.78
2022-08-12T22:44:01.045Z,70.35
2022-08-12T22:46:52.942Z,71.04
2022-08-12T22:49:36.815Z,71.64
2022-08-12T22:52:18.605Z,71.56
2022-08-12T22:55:02.871Z,72.14
2022-08-12T22:57:48.983Z,72.15
2022-08-12T23:00:24.556Z,71.91
2022-08-12T23:03:00.885Z,72.78
2022-08-12T23:05:57.327Z,73.61
2022-08-12T23:08:29.845Z,73.16
2022-08-12T23:11:06.156Z,73.51
2022-08-12T23:13:45.887Z,72.92
2022-08-12T23:16:18.191Z,72.61
2022-08-12T23:19:01.718Z,72.94
2022-08-12T23:22:05.792Z,72.81
2022-08-12T23:24:31.393Z,73.39
2022-08-12T23:27:19.613Z,73.60
2022-08-12T23:30:17.389Z,73.72
2022-08-12T23:32:39.263Z,73.99
2022-08-12T23:35:08.646Z,74.98
2022-08-12T23:37:47.651Z,74.65
2022-08-12T23:40:24.500Z,75.42
2022-08-12T23:42:57.023Z,74.43
2022-08-12T23:45:31.741Z,74.42
2022-08-12T23:48:02.202Z,74.62
2022-08-12T23:50:34.523Z,75.21
2022-08-12T23:53:22.288Z,76.17
2022-08-12T23:55:54.978Z,75.30
2022-08-12T23:58:28.357Z,75.71
